Time;durP1;ratioP1;P1;durP2;ratioP2;P2;SDS_P1;SDS_P2;PMS_P1;PMS_P2;Temp;Humidity;BMP_temperature;BMP_pressure;BME280_temperature;BME280_humidity;BME280_pressure;Samples;Min_cycle;Max_cycle;Signal;HPM_P1;HPM_P2
2022/04/03 00:01:48;;;;;;;6.90;4.22;;;;;;;;;;5125021;27;20491;-76
2022/04/03 00:04:14;;;;;;;11.90;4.30;;;;;;;;;;5144431;27;20117;-76
2022/04/03 00:06:39;;;;;;;9.15;4.97;;;;;;;;;;5127098;27;20825;-77
2022/04/03 00:09:04;;;;;;;7.45;4.47;;;;;;;;;;5105605;27;20515;-76
2022/04/03 00:11:30;;;;;;;7.65;4.13;;;;;;;;;;5099370;27;20019;-76
2022/04/03 00:13:56;;;;;;;6.72;4.13;;;;;;;;;;5122927;27;20021;-75
2022/04/03 00:16:22;;;;;;;6.28;3.83;;;;;;;;;;5146528;27;20011;-77
2022/04/03 00:18:47;;;;;;;7.03;4.22;;;;;;;;;;5122826;27;20026;-76
2022/04/03 00:21:13;;;;;;;10.13;4.18;;;;;;;;;;5143137;27;20013;-76
2022/04/03 00:23:39;;;;;;;5.60;4.05;;;;;;;;;;5125120;27;20038;-76
2022/04/03 00:26:04;;;;;;;7.70;4.28;;;;;;;;;;5109865;27;20042;-76
2022/04/03 00:28:30;;;;;;;6.72;4.90;;;;;;;;;;5123302;27;20109;-77
2022/04/03 00:30:55;;;;;;;5.25;4.18;;;;;;;;;;5124827;27;20457;-77
2022/04/03 00:33:21;;;;;;;6.72;4.03;;;;;;;;;;5145095;27;20033;-77
2022/04/03 00:35:47;;;;;;;6.95;4.30;;;;;;;;;;5141918;27;20499;-74
2022/04/03 00:38:13;;;;;;;7.75;3.97;;;;;;;;;;5111372;27;20018;-76
2022/04/03 00:40:38;;;;;;;5.85;4.18;;;;;;;;;;5146345;27;20468;-76
2022/04/03 00:43:03;;;;;;;6.25;4.28;;;;;;;;;;5110633;27;20121;-75
2022/04/03 00:45:29;;;;;;;5.18;3.50;;;;;;;;;;5129207;27;20047;-76
2022/04/03 00:47:55;;;;;;;5.35;4.20;;;;;;;;;;5126432;27;20716;-76
2022/04/03 00:50:20;;;;;;;6.82;4.38;;;;;;;;;;5133634;27;20106;-74
2022/04/03 00:52:46;;;;;;;9.55;4.07;;;;;;;;;;5105359;27;20058;-76
2022/04/03 00:55:11;;;;;;;5.35;3.63;;;;;;;;;;5126806;27;20568;-77
2022/04/03 00:57:37;;;;;;;6.07;4.07;;;;;;;;;;5105619;27;20311;-77
2022/04/03 01:00:03;;;;;;;5.88;3.70;;;;;;;;;;5091125;27;20414;-75
2022/04/03 01:02:30;;;;;;;5.75;3.70;;;;;;;;;;5107223;27;20027;-76
2022/04/03 01:04:55;;;;;;;6.95;3.53;;;;;;;;;;5106861;27;20142;-75
2022/04/03 01:07:21;;;;;;;6.90;4.18;;;;;;;;;;5111972;27;20102;-75
2022/04/03 01:09:46;;;;;;;7.40;3.63;;;;;;;;;;5101082;27;20062;-76
2022/04/03 01:12:11;;;;;;;5.68;3.10;;;;;;;;;;5106295;27;20088;-77
2022/04/03 01:14:39;;;;;;;6.03;3.22;;;;;;;;;;5127021;27;20496;-77
2022/04/03 01:17:04;;;;;;;5.18;3.17;;;;;;;;;;5107894;27;20019;-75
2022/04/03 01:19:30;;;;;;;5.30;3.63;;;;;;;;;;5125900;27;20022;-76
2022/04/03 01:21:55;;;;;;;4.13;3.45;;;;;;;;;;5104636;27;20348;-75
2022/04/03 01:24:21;;;;;;;5.38;3.13;;;;;;;;;;5107466;27;20019;-75
2022/04/03 01:26:48;;;;;;;5.75;3.42;;;;;;;;;;5120592;27;20071;-74
2022/04/03 01:29:15;;;;;;;5.53;3.60;;;;;;;;;;5127442;27;20027;-76
2022/04/03 01:31:40;;;;;;;4.80;2.90;;;;;;;;;;5146421;27;20054;-74
2022/04/03 01:34:06;;;;;;;5.10;3.05;;;;;;;;;;5126705;27;20058;-76
2022/04/03 01:36:31;;;;;;;5.15;3.03;;;;;;;;;;5120837;27;20041;-76
2022/04/03 01:38:56;;;;;;;3.72;2.97;;;;;;;;;;5137033;27;20042;-76
2022/04/03 01:41:21;;;;;;;3.90;3.13;;;;;;;;;;5127214;27;20024;-76
2022/04/03 01:43:48;;;;;;;4.35;2.72;;;;;;;;;;5122967;27;20377;-75
2022/04/03 01:46:13;;;;;;;7.53;3.20;;;;;;;;;;5115828;27;20506;-75
2022/04/03 01:48:40;;;;;;;5.22;3.00;;;;;;;;;;5128341;27;20216;-74
2022/04/03 01:51:05;;;;;;;5.20;3.30;;;;;;;;;;5126420;27;20031;-76
2022/04/03 01:53:30;;;;;;;7.53;3.20;;;;;;;;;;5124289;27;20030;-75
2022/04/03 01:56:00;;;;;;;5.88;3.22;;;;;;;;;;5107282;27;20315;-76
2022/04/03 01:58:25;;;;;;;5.88;3.30;;;;;;;;;;5106604;27;20083;-74
2022/04/03 02:00:50;;;;;;;6.28;3.30;;;;;;;;;;5107123;27;20071;-75
2022/04/03 02:03:17;;;;;;;5.57;3.15;;;;;;;;;;5107955;27;20019;-75
2022/04/03 02:05:43;;;;;;;6.57;3.00;;;;;;;;;;5106810;27;20031;-75
2022/04/03 02:08:09;;;;;;;6.88;3.38;;;;;;;;;;5106627;27;20023;-76
2022/04/03 02:10:34;;;;;;;6.13;3.38;;;;;;;;;;5107911;27;20120;-75
2022/04/03 02:12:59;;;;;;;5.50;2.88;;;;;;;;;;5104213;27;20035;-76
2022/04/03 02:15:25;;;;;;;4.68;2.70;;;;;;;;;;5109001;27;20474;-76
2022/04/03 02:17:50;;;;;;;4.70;3.25;;;;;;;;;;5113400;27;20481;-76
2022/04/03 02:20:16;;;;;;;5.03;2.80;;;;;;;;;;5144539;27;20473;-75
2022/04/03 02:22:42;;;;;;;5.68;3.30;;;;;;;;;;5109939;27;20033;-75
2022/04/03 02:25:11;;;;;;;4.68;3.00;;;;;;;;;;5089576;27;20050;-75
2022/04/03 02:27:41;;;;;;;3.88;3.10;;;;;;;;;;5122771;27;20303;-75
2022/04/03 02:30:09;;;;;;;5.00;3.00;;;;;;;;;;5109479;27;20019;-75
2022/04/03 02:32:34;;;;;;;6.32;3.47;;;;;;;;;;5129053;27;20114;-76
2022/04/03 02:35:00;;;;;;;5.07;3.10;;;;;;;;;;5121549;27;20465;-75
2022/04/03 02:37:25;;;;;;;7.35;3.08;;;;;;;;;;5135269;27;20090;-75
2022/04/03 02:39:50;;;;;;;6.28;3.35;;;;;;;;;;5125656;27;20042;-76
2022/04/03 02:42:16;;;;;;;9.65;3.67;;;;;;;;;;5144082;27;20011;-75
2022/04/03 02:44:41;;;;;;;5.20;2.92;;;;;;;;;;5145644;27;20019;-76
2022/04/03 02:47:11;;;;;;;3.63;2.63;;;;;;;;;;5125819;27;20046;-76
2022/04/03 02:49:36;;;;;;;5.78;2.95;;;;;;;;;;5124782;27;20397;-76
2022/04/03 02:52:01;;;;;;;4.97;2.88;;;;;;;;;;5123733;27;20283;-77
2022/04/03 02:54:27;;;;;;;5.53;3.05;;;;;;;;;;5128425;27;20106;-78
2022/04/03 02:56:53;;;;;;;6.18;2.92;;;;;;;;;;5123038;27;20051;-77
2022/04/03 02:59:18;;;;;;;5.47;3.20;;;;;;;;;;5088213;27;20202;-77
2022/04/03 03:01:44;;;;;;;6.97;3.03;;;;;;;;;;5125835;27;20470;-76
2022/04/03 03:04:10;;;;;;;5.20;3.13;;;;;;;;;;5103817;27;20194;-77
2022/04/03 03:06:35;;;;;;;5.65;3.33;;;;;;;;;;5089352;27;20029;-76
2022/04/03 03:09:00;;;;;;;6.50;2.78;;;;;;;;;;5102775;27;20058;-77
2022/04/03 03:11:26;;;;;;;6.70;3.35;;;;;;;;;;5126996;27;20487;-77
2022/04/03 03:13:51;;;;;;;5.38;2.97;;;;;;;;;;5143090;27;20037;-75
2022/04/03 03:16:16;;;;;;;6.90;3.00;;;;;;;;;;5126635;27;20034;-78
2022/04/03 03:18:44;;;;;;;5.22;3.42;;;;;;;;;;5127080;27;20019;-77
2022/04/03 03:21:09;;;;;;;4.97;3.03;;;;;;;;;;5108143;27;20384;-78
2022/04/03 03:23:35;;;;;;;4.50;3.15;;;;;;;;;;5146467;27;20250;-74
2022/04/03 03:26:00;;;;;;;8.60;3.40;;;;;;;;;;5103346;27;20034;-76
2022/04/03 03:28:26;;;;;;;4.47;3.40;;;;;;;;;;5106866;27;20023;-77
2022/04/03 03:30:51;;;;;;;4.88;3.20;;;;;;;;;;5089567;27;20037;-75
2022/04/03 03:33:16;;;;;;;6.78;3.92;;;;;;;;;;5125920;27;20084;-74
2022/04/03 03:35:43;;;;;;;3.65;3.08;;;;;;;;;;5138328;27;20027;-75
2022/04/03 03:38:09;;;;;;;6.63;3.30;;;;;;;;;;5109204;27;20027;-74
2022/04/03 03:40:38;;;;;;;6.03;3.30;;;;;;;;;;5127263;27;20097;-77
2022/04/03 03:43:04;;;;;;;5.60;3.40;;;;;;;;;;5144776;27;20030;-78
2022/04/03 03:45:29;;;;;;;5.25;3.30;;;;;;;;;;5146417;27;20081;-77
2022/04/03 03:47:55;;;;;;;5.28;3.45;;;;;;;;;;5145081;27;20413;-75
2022/04/03 03:50:20;;;;;;;3.88;3.35;;;;;;;;;;5144556;27;20030;-77
2022/04/03 03:52:46;;;;;;;7.20;3.70;;;;;;;;;;5091316;27;20034;-78
2022/04/03 03:55:11;;;;;;;8.63;3.72;;;;;;;;;;5107400;27;20054;-77
2022/04/03 03:57:38;;;;;;;6.95;3.17;;;;;;;;;;5104751;27;20027;-77
2022/04/03 04:00:04;;;;;;;6.18;3.35;;;;;;;;;;5125749;27;20021;-79
2022/04/03 04:02:29;;;;;;;8.02;3.10;;;;;;;;;;5127369;27;20014;-77
2022/04/03 04:04:54;;;;;;;5.68;3.50;;;;;;;;;;5141502;27;20478;-77
2022/04/03 04:07:20;;;;;;;5.47;3.75;;;;;;;;;;5142520;27;20473;-76
2022/04/03 04:09:45;;;;;;;7.22;3.80;;;;;;;;;;5109322;27;20473;-77
2022/04/03 04:12:11;;;;;;;5.13;3.67;;;;;;;;;;5125211;27;20461;-75
2022/04/03 04:14:38;;;;;;;4.57;3.35;;;;;;;;;;5148368;27;20058;-75
2022/04/03 04:17:03;;;;;;;5.63;3.35;;;;;;;;;;5128911;27;20457;-76
2022/04/03 04:19:29;;;;;;;5.15;3.38;;;;;;;;;;5146244;27;20025;-75
2022/04/03 04:21:55;;;;;;;6.32;2.83;;;;;;;;;;5125237;27;20071;-75
2022/04/03 04:24:21;;;;;;;6.72;4.05;;;;;;;;;;5130254;27;20023;-75
2022/04/03 04:26:47;;;;;;;8.65;3.63;;;;;;;;;;5128164;27;20036;-74
2022/04/03 04:29:12;;;;;;;8.43;3.30;;;;;;;;;;5110166;27;20477;-75
2022/04/03 04:31:38;;;;;;;5.40;3.20;;;;;;;;;;5129198;27;20071;-75
2022/04/03 04:34:03;;;;;;;8.50;3.88;;;;;;;;;;5144152;27;20393;-74
2022/04/03 04:36:29;;;;;;;6.13;3.50;;;;;;;;;;5127921;27;20122;-75
2022/04/03 04:38:55;;;;;;;5.93;3.42;;;;;;;;;;5147490;27;20022;-75
2022/04/03 04:41:21;;;;;;;5.53;3.30;;;;;;;;;;5112602;27;20039;-74
2022/04/03 04:43:46;;;;;;;6.50;3.33;;;;;;;;;;5111442;27;20457;-73
2022/04/03 04:46:11;;;;;;;6.75;3.30;;;;;;;;;;5147876;27;20038;-74
2022/04/03 04:48:38;;;;;;;4.18;3.05;;;;;;;;;;5147300;27;20038;-74
2022/04/03 04:51:04;;;;;;;7.22;3.53;;;;;;;;;;5126093;27;20056;-76
2022/04/03 04:53:29;;;;;;;5.80;2.95;;;;;;;;;;5148655;27;20337;-76
2022/04/03 04:55:54;;;;;;;5.25;3.50;;;;;;;;;;5146331;27;20011;-75
2022/04/03 04:58:20;;;;;;;6.75;3.33;;;;;;;;;;5128000;27;20018;-75
2022/04/03 05:00:46;;;;;;;5.47;3.42;;;;;;;;;;5112484;27;20030;-75
2022/04/03 05:03:12;;;;;;;8.02;3.83;;;;;;;;;;5146899;27;20031;-75
2022/04/03 05:05:37;;;;;;;4.75;3.08;;;;;;;;;;5128740;27;20495;-77
2022/04/03 05:08:02;;;;;;;7.60;4.03;;;;;;;;;;5145372;27;20023;-77
2022/04/03 05:10:29;;;;;;;4.93;3.50;;;;;;;;;;5129122;27;20532;-77
2022/04/03 05:12:55;;;;;;;7.05;3.35;;;;;;;;;;5145052;27;20041;-74
2022/04/03 05:15:21;;;;;;;5.65;3.75;;;;;;;;;;5129016;27;20581;-76
2022/04/03 05:17:46;;;;;;;6.05;3.85;;;;;;;;;;5129197;27;20086;-76
2022/04/03 05:20:12;;;;;;;6.32;3.63;;;;;;;;;;5114444;27;20022;-74
2022/04/03 05:22:38;;;;;;;5.80;3.50;;;;;;;;;;5106633;27;20457;-75
2022/04/03 05:25:04;;;;;;;6.70;3.40;;;;;;;;;;5127044;27;20026;-76
2022/04/03 05:27:30;;;;;;;7.95;3.80;;;;;;;;;;5106600;27;20023;-75
2022/04/03 05:29:56;;;;;;;10.50;3.85;;;;;;;;;;5131816;27;20050;-75
2022/04/03 05:32:26;;;;;;;6.32;3.83;;;;;;;;;;5108076;27;20396;-76
2022/04/03 05:34:51;;;;;;;6.15;3.88;;;;;;;;;;5107571;27;20393;-74
2022/04/03 05:37:16;;;;;;;5.32;3.60;;;;;;;;;;5125331;27;20026;-75
2022/04/03 05:39:42;;;;;;;8.57;4.20;;;;;;;;;;5119585;27;20039;-74
2022/04/03 05:42:07;;;;;;;5.28;3.80;;;;;;;;;;5109566;27;20031;-75
2022/04/03 05:44:32;;;;;;;9.02;4.47;;;;;;;;;;5128268;27;20127;-74
2022/04/03 05:46:58;;;;;;;9.90;4.18;;;;;;;;;;5119244;27;20058;-74
2022/04/03 05:49:23;;;;;;;5.95;4.20;;;;;;;;;;5089312;27;20098;-76
2022/04/03 05:51:49;;;;;;;8.38;4.10;;;;;;;;;;5136969;27;20146;-76
2022/04/03 05:54:15;;;;;;;8.57;4.45;;;;;;;;;;5126431;27;20313;-75
2022/04/03 05:56:40;;;;;;;6.50;3.70;;;;;;;;;;5127376;27;20026;-74
2022/04/03 05:59:05;;;;;;;5.68;3.97;;;;;;;;;;5125738;27;20027;-75
2022/04/03 06:01:30;;;;;;;6.55;3.67;;;;;;;;;;5139060;27;20041;-75
2022/04/03 06:03:57;;;;;;;5.57;3.92;;;;;;;;;;5131856;27;20616;-75
2022/04/03 06:06:22;;;;;;;7.28;3.97;;;;;;;;;;5124547;27;20472;-76
2022/04/03 06:08:48;;;;;;;5.00;3.70;;;;;;;;;;5145522;27;20026;-75
2022/04/03 06:11:13;;;;;;;7.30;3.92;;;;;;;;;;5126031;27;20027;-74
2022/04/03 06:13:39;;;;;;;9.45;3.88;;;;;;;;;;5124367;27;20045;-75
2022/04/03 06:16:04;;;;;;;8.25;3.97;;;;;;;;;;5105013;27;20417;-74
2022/04/03 06:18:29;;;;;;;10.75;3.90;;;;;;;;;;5104920;27;20501;-76
2022/04/03 06:20:55;;;;;;;5.18;4.00;;;;;;;;;;5117135;27;20068;-74
2022/04/03 06:23:21;;;;;;;4.95;3.97;;;;;;;;;;5122443;27;20026;-75
2022/04/03 06:25:47;;;;;;;6.40;4.78;;;;;;;;;;5105645;27;20450;-75
2022/04/03 06:28:13;;;;;;;6.78;4.88;;;;;;;;;;5129079;27;20071;-76
2022/04/03 06:30:38;;;;;;;7.88;4.60;;;;;;;;;;5144929;27;20034;-75
2022/04/03 06:33:04;;;;;;;7.28;4.50;;;;;;;;;;5131210;27;20029;-75
2022/04/03 06:35:29;;;;;;;7.53;4.45;;;;;;;;;;5120159;27;20079;-75
2022/04/03 06:37:55;;;;;;;10.45;6.28;;;;;;;;;;5098381;27;20023;-75
2022/04/03 06:40:20;;;;;;;8.10;5.32;;;;;;;;;;5087952;27;20308;-75
2022/04/03 06:42:46;;;;;;;8.32;5.75;;;;;;;;;;5090765;27;20023;-75
2022/04/03 06:45:11;;;;;;;7.35;5.60;;;;;;;;;;5115381;27;20037;-76
2022/04/03 06:47:37;;;;;;;7.22;5.25;;;;;;;;;;5106260;27;20520;-74
2022/04/03 06:50:04;;;;;;;6.80;5.60;;;;;;;;;;5102593;27;20019;-76
2022/04/03 06:52:29;;;;;;;7.32;5.68;;;;;;;;;;5102138;27;20023;-75
2022/04/03 06:54:55;;;;;;;8.90;5.82;;;;;;;;;;5141982;27;20408;-75
2022/04/03 06:57:20;;;;;;;6.50;5.38;;;;;;;;;;5118908;27;20508;-77
2022/04/03 06:59:48;;;;;;;7.78;4.97;;;;;;;;;;5106621;27;20030;-74
2022/04/03 07:02:14;;;;;;;5.93;4.80;;;;;;;;;;5130543;27;20015;-73
2022/04/03 07:04:39;;;;;;;7.03;4.30;;;;;;;;;;5122411;27;20354;-74
2022/04/03 07:07:05;;;;;;;8.20;4.28;;;;;;;;;;5120568;27;20071;-73
2022/04/03 07:09:31;;;;;;;6.00;4.10;;;;;;;;;;5105270;27;20096;-75
2022/04/03 07:11:56;;;;;;;5.95;4.15;;;;;;;;;;5122831;27;20030;-74
2022/04/03 07:14:22;;;;;;;7.60;3.65;;;;;;;;;;5122499;27;20230;-74
2022/04/03 07:16:47;;;;;;;5.35;3.60;;;;;;;;;;5106085;27;20501;-74
2022/04/03 07:19:12;;;;;;;5.93;3.63;;;;;;;;;;5119676;27;20029;-74
2022/04/03 07:21:38;;;;;;;8.65;3.67;;;;;;;;;;5132730;27;20174;-74
2022/04/03 07:24:07;;;;;;;6.78;3.40;;;;;;;;;;5108855;27;20035;-75
2022/04/03 07:26:32;;;;;;;3.90;3.08;;;;;;;;;;5105182;27;20030;-75
2022/04/03 07:28:57;;;;;;;3.50;2.72;;;;;;;;;;5121400;27;20023;-75
2022/04/03 07:31:23;;;;;;;4.85;3.03;;;;;;;;;;5103047;27;20704;-75
2022/04/03 07:33:48;;;;;;;6.22;3.20;;;;;;;;;;5120131;27;20472;-75
2022/04/03 07:36:13;;;;;;;4.40;2.95;;;;;;;;;;5136525;27;20019;-75
2022/04/03 07:38:39;;;;;;;5.63;2.78;;;;;;;;;;5136583;27;20404;-76
2022/04/03 07:41:05;;;;;;;3.92;2.92;;;;;;;;;;5142923;27;20035;-76
2022/04/03 07:43:30;;;;;;;4.60;2.38;;;;;;;;;;5118508;27;20118;-77
2022/04/03 07:45:57;;;;;;;3.60;2.75;;;;;;;;;;5092236;27;20127;-74
2022/04/03 07:48:22;;;;;;;5.30;2.70;;;;;;;;;;5126790;27;20031;-76
2022/04/03 07:50:48;;;;;;;4.28;2.58;;;;;;;;;;5126284;27;20359;-76
2022/04/03 07:53:13;;;;;;;4.10;2.85;;;;;;;;;;5107149;27;20106;-74
2022/04/03 07:55:40;;;;;;;3.05;2.03;;;;;;;;;;5110213;27;20580;-76
2022/04/03 07:58:06;;;;;;;5.40;2.00;;;;;;;;;;5091576;27;20027;-76
2022/04/03 08:00:33;;;;;;;2.90;1.52;;;;;;;;;;5104276;27;20080;-75
2022/04/03 08:02:58;;;;;;;4.00;1.77;;;;;;;;;;5130353;27;20022;-76
2022/04/03 08:05:23;;;;;;;1.83;1.63;;;;;;;;;;5128176;27;20109;-76
2022/04/03 08:07:49;;;;;;;4.70;1.77;;;;;;;;;;5126570;27;20068;-76
2022/04/03 08:10:15;;;;;;;2.47;1.42;;;;;;;;;;5128372;27;20031;-76
2022/04/03 08:12:41;;;;;;;1.67;1.45;;;;;;;;;;5108791;27;20027;-76
2022/04/03 08:15:08;;;;;;;4.88;1.00;;;;;;;;;;5093132;27;20339;-76
2022/04/03 08:17:34;;;;;;;5.70;1.20;;;;;;;;;;5110791;27;20042;-76
2022/04/03 08:20:00;;;;;;;2.67;1.00;;;;;;;;;;5108279;27;20027;-74
2022/04/03 08:22:25;;;;;;;2.72;0.95;;;;;;;;;;5124803;27;20034;-74
2022/04/03 08:24:50;;;;;;;3.17;1.00;;;;;;;;;;5111535;27;20414;-74
2022/04/03 08:27:16;;;;;;;3.53;1.00;;;;;;;;;;5124236;27;20011;-75
2022/04/03 08:29:42;;;;;;;4.03;1.00;;;;;;;;;;5132852;27;20037;-76
2022/04/03 08:32:08;;;;;;;3.38;1.08;;;;;;;;;;5132066;27;20125;-75
2022/04/03 08:34:33;;;;;;;2.53;0.70;;;;;;;;;;5131788;27;20556;-74
2022/04/03 08:36:59;;;;;;;2.13;0.55;;;;;;;;;;5130326;27;20022;-73
2022/04/03 08:39:25;;;;;;;2.50;0.50;;;;;;;;;;5131052;27;20101;-75
2022/04/03 08:41:51;;;;;;;1.45;0.57;;;;;;;;;;5129799;27;20030;-74
2022/04/03 08:44:17;;;;;;;2.72;0.80;;;;;;;;;;5111144;27;20031;-74
2022/04/03 08:46:45;;;;;;;1.85;0.80;;;;;;;;;;5149778;27;20500;-74
2022/04/03 08:49:12;;;;;;;5.72;1.08;;;;;;;;;;5147497;27;20034;-74
2022/04/03 08:51:39;;;;;;;2.10;1.00;;;;;;;;;;5129422;27;20014;-73
2022/04/03 08:54:05;;;;;;;3.25;0.80;;;;;;;;;;5130210;27;20050;-73
2022/04/03 08:56:30;;;;;;;4.68;1.30;;;;;;;;;;5143291;27;20027;-75
2022/04/03 08:58:55;;;;;;;3.00;1.00;;;;;;;;;;5089180;27;20455;-72
2022/04/03 09:01:21;;;;;;;5.97;1.15;;;;;;;;;;5092160;27;20019;-73
2022/04/03 09:03:47;;;;;;;3.92;0.70;;;;;;;;;;5145428;27;20476;-73
2022/04/03 09:06:16;;;;;;;3.83;0.82;;;;;;;;;;5125093;27;20079;-75
2022/04/03 09:08:41;;;;;;;3.20;0.90;;;;;;;;;;5146099;27;20109;-74
2022/04/03 09:11:07;;;;;;;4.88;1.15;;;;;;;;;;5128686;27;20079;-74
2022/04/03 09:13:33;;;;;;;1.92;0.77;;;;;;;;;;5125476;27;20133;-74
2022/04/03 09:15:59;;;;;;;4.65;1.38;;;;;;;;;;5127254;27;20255;-74
2022/04/03 09:18:41;;;;;;;4.07;1.08;;;;;;;;;;5125738;27;20122;-75
2022/04/03 09:21:23;;;;;;;1.67;0.90;;;;;;;;;;5104690;27;20284;-73
2022/04/03 09:24:15;;;;;;;2.63;1.17;;;;;;;;;;5126021;27;20023;-73
2022/04/03 09:26:46;;;;;;;4.25;1.05;;;;;;;;;;5107684;27;20103;-74
2022/04/03 09:29:14;;;;;;;2.40;0.70;;;;;;;;;;5090392;27;20023;-73
2022/04/03 09:31:41;;;;;;;1.90;0.70;;;;;;;;;;5104816;27;20031;-74
2022/04/03 09:34:08;;;;;;;2.08;0.70;;;;;;;;;;5105022;27;20027;-73
2022/04/03 09:36:37;;;;;;;3.83;0.98;;;;;;;;;;5099728;27;20019;-74
2022/04/03 09:39:04;;;;;;;6.78;1.00;;;;;;;;;;5106588;27;20019;-76
2022/04/03 09:41:29;;;;;;;3.10;0.90;;;;;;;;;;5122831;27;20019;-74
2022/04/03 09:43:54;;;;;;;4.47;0.80;;;;;;;;;;5104225;27;20053;-74
2022/04/03 09:46:22;;;;;;;2.72;0.80;;;;;;;;;;5122251;27;20070;-74
2022/04/03 09:48:47;;;;;;;1.20;0.60;;;;;;;;;;5121805;27;20110;-72
2022/04/03 09:51:22;;;;;;;3.25;0.70;;;;;;;;;;5139682;27;20508;-74
2022/04/03 09:53:52;;;;;;;1.90;0.90;;;;;;;;;;5123918;27;20113;-74
2022/04/03 09:56:23;;;;;;;1.63;0.70;;;;;;;;;;5125219;27;20019;-73
2022/04/03 09:58:51;;;;;;;2.97;0.75;;;;;;;;;;5100688;27;20517;-73
2022/04/03 10:01:21;;;;;;;1.65;0.60;;;;;;;;;;5125453;27;20043;-73
2022/04/03 10:03:47;;;;;;;1.77;0.93;;;;;;;;;;5122438;27;20023;-73
2022/04/03 10:06:13;;;;;;;2.40;0.90;;;;;;;;;;5107029;27;20020;-75
2022/04/03 10:08:39;;;;;;;1.38;0.60;;;;;;;;;;5082909;27;20036;-74
2022/04/03 10:11:05;;;;;;;2.50;0.80;;;;;;;;;;5126157;27;20046;-73
2022/04/03 10:13:30;;;;;;;2.10;0.70;;;;;;;;;;5101556;27;20019;-73
2022/04/03 10:15:55;;;;;;;0.82;0.70;;;;;;;;;;5124325;27;20049;-73
2022/04/03 10:18:21;;;;;;;3.38;0.75;;;;;;;;;;5102367;27;20234;-71
2022/04/03 10:20:46;;;;;;;2.88;1.20;;;;;;;;;;5103623;27;20019;-73
2022/04/03 10:23:12;;;;;;;1.73;0.52;;;;;;;;;;5124434;27;20023;-72
2022/04/03 10:25:44;;;;;;;2.67;1.88;;;;;;;;;;5122569;27;20015;-73
2022/04/03 10:28:10;;;;;;;3.92;0.80;;;;;;;;;;5102676;27;20434;-73
2022/04/03 10:30:36;;;;;;;3.33;0.90;;;;;;;;;;5088098;27;20034;-73
2022/04/03 10:33:01;;;;;;;3.22;0.98;;;;;;;;;;5091087;27;20386;-74
2022/04/03 10:35:26;;;;;;;6.00;1.95;;;;;;;;;;5144569;27;20053;-72
2022/04/03 10:37:59;;;;;;;4.15;1.20;;;;;;;;;;5104772;27;20482;-74
2022/04/03 10:40:29;;;;;;;4.72;1.13;;;;;;;;;;5123980;27;20015;-74
2022/04/03 10:42:56;;;;;;;6.95;2.20;;;;;;;;;;5107679;27;20473;-74
2022/04/03 10:45:29;;;;;;;2.45;1.17;;;;;;;;;;5126846;27;20027;-73
2022/04/03 10:48:13;;;;;;;3.83;1.98;;;;;;;;;;5122738;27;20045;-74
2022/04/03 10:50:57;;;;;;;4.18;1.00;;;;;;;;;;5123073;27;20027;-73
2022/04/03 10:53:23;;;;;;;3.67;0.68;;;;;;;;;;5143186;27;20017;-73
2022/04/03 10:55:55;;;;;;;8.30;2.38;;;;;;;;;;5145335;27;20014;-73
2022/04/03 10:58:21;;;;;;;22.63;12.13;;;;;;;;;;5145124;27;20019;-73
2022/04/03 11:00:47;;;;;;;6.28;2.63;;;;;;;;;;5111004;27;20074;-74
2022/04/03 11:03:13;;;;;;;3.85;1.20;;;;;;;;;;5124900;27;20085;-74
2022/04/03 11:05:42;;;;;;;2.13;0.98;;;;;;;;;;5144145;27;20026;-73
2022/04/03 11:08:07;;;;;;;2.65;1.20;;;;;;;;;;5114240;27;20023;-72
2022/04/03 11:10:42;;;;;;;2.25;1.05;;;;;;;;;;5144818;27;20026;-74
2022/04/03 11:13:08;;;;;;;5.68;1.65;;;;;;;;;;5124605;27;20072;-74
2022/04/03 11:15:42;;;;;;;20.50;11.02;;;;;;;;;;5145034;27;20018;-72
2022/04/03 11:18:25;;;;;;;6.97;3.00;;;;;;;;;;5145634;27;20019;-74
2022/04/03 11:21:04;;;;;;;4.78;1.98;;;;;;;;;;5142689;27;20098;-74
2022/04/03 11:23:30;;;;;;;14.93;7.13;;;;;;;;;;5123663;27;20380;-74
2022/04/03 11:25:55;;;;;;;22.13;12.88;;;;;;;;;;5126817;27;20027;-74
2022/04/03 11:28:22;;;;;;;2.78;2.22;;;;;;;;;;5124086;27;20022;-74
2022/04/03 11:30:48;;;;;;;1.55;1.15;;;;;;;;;;5109037;27;20061;-73
2022/04/03 11:33:14;;;;;;;1.10;1.10;;;;;;;;;;5126021;27;20023;-73
2022/04/03 11:35:40;;;;;;;3.50;0.85;;;;;;;;;;5123149;27;20070;-74
2022/04/03 11:38:06;;;;;;;0.88;0.63;;;;;;;;;;5124174;27;20499;-73
2022/04/03 11:40:33;;;;;;;1.60;0.80;;;;;;;;;;5143072;27;20027;-73
2022/04/03 11:43:13;;;;;;;5.38;0.90;;;;;;;;;;5124158;27;20014;-72
2022/04/03 11:45:39;;;;;;;2.75;0.77;;;;;;;;;;5137584;27;20477;-74
2022/04/03 11:48:14;;;;;;;0.88;0.60;;;;;;;;;;5105242;27;20039;-74
2022/04/03 11:50:39;;;;;;;1.73;0.68;;;;;;;;;;5120297;27;20038;-72
2022/04/03 11:53:08;;;;;;;3.08;0.80;;;;;;;;;;5103560;27;20031;-73
2022/04/03 11:55:35;;;;;;;1.73;0.63;;;;;;;;;;5103411;27;20035;-74
2022/04/03 11:58:03;;;;;;;3.30;1.50;;;;;;;;;;5124366;27;20019;-73
2022/04/03 12:00:30;;;;;;;0.75;0.63;;;;;;;;;;5104419;27;20043;-73
2022/04/03 12:02:59;;;;;;;1.33;0.80;;;;;;;;;;5103992;27;20022;-73
2022/04/03 12:05:25;;;;;;;1.30;0.70;;;;;;;;;;5121663;27;20011;-74
2022/04/03 12:07:51;;;;;;;2.63;1.00;;;;;;;;;;5114138;27;20010;-74
2022/04/03 12:10:26;;;;;;;1.90;0.52;;;;;;;;;;5145214;27;20022;-74
2022/04/03 12:12:53;;;;;;;1.88;0.63;;;;;;;;;;5125159;27;20071;-72
2022/04/03 12:15:19;;;;;;;2.53;0.70;;;;;;;;;;5110718;27;20011;-73
2022/04/03 12:17:44;;;;;;;2.60;0.70;;;;;;;;;;5142318;27;20275;-73
2022/04/03 12:20:10;;;;;;;3.22;0.80;;;;;;;;;;5123550;27;20109;-73
2022/04/03 12:22:40;;;;;;;3.03;0.90;;;;;;;;;;5123906;27;20036;-74
2022/04/03 12:25:05;;;;;;;2.15;0.82;;;;;;;;;;5145424;27;20011;-73
2022/04/03 12:27:32;;;;;;;1.88;0.60;;;;;;;;;;5122661;27;20087;-73
2022/04/03 12:29:57;;;;;;;1.90;0.60;;;;;;;;;;5145440;27;20026;-72
2022/04/03 12:32:22;;;;;;;1.48;0.60;;;;;;;;;;5147208;27;20030;-73
2022/04/03 12:34:50;;;;;;;1.67;0.70;;;;;;;;;;5135797;27;20034;-72
2022/04/03 12:37:16;;;;;;;0.85;0.60;;;;;;;;;;5110089;27;20030;-73
2022/04/03 12:39:41;;;;;;;0.68;0.60;;;;;;;;;;5128001;27;20115;-75
2022/04/03 12:42:22;;;;;;;2.83;0.80;;;;;;;;;;5129797;27;20463;-73
2022/04/03 12:44:49;;;;;;;1.95;0.68;;;;;;;;;;5108274;27;20377;-74
2022/04/03 12:47:15;;;;;;;2.13;1.08;;;;;;;;;;5128002;27;20117;-73
2022/04/03 12:49:41;;;;;;;2.35;0.90;;;;;;;;;;5112883;27;20185;-74
2022/04/03 12:52:07;;;;;;;0.85;0.70;;;;;;;;;;5146573;27;20018;-73
2022/04/03 12:54:42;;;;;;;1.80;0.65;;;;;;;;;;5137412;27;20026;-74
2022/04/03 13:00:19;;;;;;;1.40;0.70;;;;;;;;;;5126868;27;20107;-74
2022/04/03 13:02:50;;;;;;;1.30;0.80;;;;;;;;;;5114777;27;20022;-73
2022/04/03 13:05:16;;;;;;;3.78;1.10;;;;;;;;;;5125965;27;20026;-74
2022/04/03 13:07:41;;;;;;;3.25;2.42;;;;;;;;;;5145080;27;20106;-74
2022/04/03 13:10:14;;;;;;;2.13;1.73;;;;;;;;;;5146837;27;20097;-72
2022/04/03 13:12:39;;;;;;;3.13;1.20;;;;;;;;;;5123833;27;20520;-72
2022/04/03 13:15:05;;;;;;;2.38;0.85;;;;;;;;;;5145818;27;20186;-73
2022/04/03 13:17:31;;;;;;;4.15;1.02;;;;;;;;;;5126823;27;20030;-74
2022/04/03 13:19:56;;;;;;;1.55;0.80;;;;;;;;;;5109333;27;20018;-74
2022/04/03 13:22:22;;;;;;;4.80;1.13;;;;;;;;;;5144642;27;20015;-74
2022/04/03 13:24:47;;;;;;;2.25;1.10;;;;;;;;;;5108895;27;20022;-73
2022/04/03 13:27:13;;;;;;;2.58;0.75;;;;;;;;;;5144639;27;20021;-74
2022/04/03 13:29:38;;;;;;;2.95;1.02;;;;;;;;;;5107091;27;20536;-72
2022/04/03 13:32:04;;;;;;;2.58;1.10;;;;;;;;;;5145425;27;20026;-72
2022/04/03 13:34:31;;;;;;;4.10;0.98;;;;;;;;;;5115511;27;20035;-71
2022/04/03 13:36:56;;;;;;;2.15;0.82;;;;;;;;;;5106871;27;20019;-72
2022/04/03 13:39:23;;;;;;;3.70;0.90;;;;;;;;;;5131449;27;20019;-72
2022/04/03 13:41:48;;;;;;;3.33;0.80;;;;;;;;;;5140487;27;20339;-71
2022/04/03 13:44:14;;;;;;;0.85;0.77;;;;;;;;;;5136101;27;20053;-73
2022/04/03 13:46:40;;;;;;;1.08;0.60;;;;;;;;;;5102696;27;20195;-71
2022/04/03 13:49:05;;;;;;;4.15;0.90;;;;;;;;;;5137369;27;20376;-72
2022/04/03 13:51:32;;;;;;;2.13;0.60;;;;;;;;;;5126345;27;20157;-72
2022/04/03 13:53:57;;;;;;;0.75;0.70;;;;;;;;;;5092119;27;20083;-72
2022/04/03 13:56:24;;;;;;;0.95;0.50;;;;;;;;;;5125634;27;20015;-72
2022/04/03 13:58:50;;;;;;;1.10;0.52;;;;;;;;;;5131275;27;20478;-72
2022/04/03 14:01:17;;;;;;;1.52;0.70;;;;;;;;;;5107804;27;20071;-72
2022/04/03 14:03:46;;;;;;;1.33;0.60;;;;;;;;;;5121081;27;20076;-72
2022/04/03 14:06:11;;;;;;;2.67;1.00;;;;;;;;;;5141995;27;20047;-73
2022/04/03 14:08:37;;;;;;;2.42;0.70;;;;;;;;;;5134860;27;20023;-73
2022/04/03 14:11:03;;;;;;;2.65;0.80;;;;;;;;;;5107078;27;20418;-72
2022/04/03 14:13:30;;;;;;;3.25;0.63;;;;;;;;;;5095054;27;20124;-73
2022/04/03 14:15:59;;;;;;;1.95;0.73;;;;;;;;;;5123400;27;20497;-73
2022/04/03 14:18:25;;;;;;;0.98;0.70;;;;;;;;;;5137308;27;20486;-72
2022/04/03 14:20:51;;;;;;;3.50;0.90;;;;;;;;;;5143780;27;20109;-72
2022/04/03 14:23:16;;;;;;;4.30;0.80;;;;;;;;;;5142823;27;20018;-73
2022/04/03 14:25:41;;;;;;;1.38;0.70;;;;;;;;;;5125102;27;20030;-71
2022/04/03 14:28:07;;;;;;;1.67;0.73;;;;;;;;;;5121149;27;20089;-72
2022/04/03 14:30:32;;;;;;;2.42;0.70;;;;;;;;;;5145041;27;20301;-72
2022/04/03 14:32:58;;;;;;;1.83;0.70;;;;;;;;;;5107281;27;20053;-71
2022/04/03 14:35:24;;;;;;;1.33;0.90;;;;;;;;;;5143600;27;20018;-71
2022/04/03 14:37:50;;;;;;;3.67;1.08;;;;;;;;;;5139404;27;20408;-72
2022/04/03 14:40:16;;;;;;;2.28;1.08;;;;;;;;;;5100822;27;20022;-70
2022/04/03 14:42:42;;;;;;;2.47;1.02;;;;;;;;;;5104573;27;20554;-70